Olten, Switzerland
Current Conditions -  °F | °C
As of 11:12 PM on Wednesday 28 Jan 2015 (Local Time) from LFSB Reporting Station
Overcast Overcast  
Wind Chill: 39°   Ceiling: 2600
Heat Index: 45°   Visibility: 6mi
Dew Point: 39°   Wind: 10mph
Humidity: 81%   Direction: 240°WSW
Pressure: 29.65"   Gusts: NA
Location:  47.37°N, 7.9°E
Report Text: LFSB 282212Z 24009KT 200V270 9999 OVC026 07/04 Q1004 NOSIG
Loading
Personal Weather Stations






























Interactive Weather Map New forecast layout! Learn more

10-Day Weather Forecast

Advertisements
Track Severe Weather on mobile